sensor_id;sensor_type;location;lat;lon;timestamp;P1;durP1;ratioP1;P2;durP2;ratioP2
3491;SDS011;1760;52.480;13.422;2023-04-15T00:02:19;25.87;;;13.77;;
3491;SDS011;1760;52.480;13.422;2023-04-15T00:04:46;20.93;;;14.30;;
3491;SDS011;1760;52.480;13.422;2023-04-15T00:07:15;24.27;;;14.20;;
3491;SDS011;1760;52.480;13.422;2023-04-15T00:09:42;20.33;;;13.50;;
3491;SDS011;1760;52.480;13.422;2023-04-15T00:12:10;23.57;;;12.73;;
3491;SDS011;1760;52.480;13.422;2023-04-15T00:14:37;25.83;;;14.80;;
3491;SDS011;1760;52.480;13.422;2023-04-15T00:17:04;34.47;;;15.17;;
3491;SDS011;1760;52.480;13.422;2023-04-15T00:19:31;25.97;;;13.10;;
3491;SDS011;1760;52.480;13.422;2023-04-15T00:21:58;21.17;;;11.93;;
3491;SDS011;1760;52.480;13.422;2023-04-15T00:24:27;22.33;;;14.40;;
3491;SDS011;1760;52.480;13.422;2023-04-15T00:26:55;23.90;;;14.23;;
3491;SDS011;1760;52.480;13.422;2023-04-15T00:29:22;25.07;;;14.67;;
3491;SDS011;1760;52.480;13.422;2023-04-15T00:31:49;27.20;;;15.03;;
3491;SDS011;1760;52.480;13.422;2023-04-15T00:34:16;25.03;;;12.80;;
3491;SDS011;1760;52.480;13.422;2023-04-15T00:36:43;25.80;;;14.53;;
3491;SDS011;1760;52.480;13.422;2023-04-15T00:39:10;22.90;;;14.87;;
3491;SDS011;1760;52.480;13.422;2023-04-15T00:41:38;23.27;;;15.27;;
3491;SDS011;1760;52.480;13.422;2023-04-15T00:44:05;28.67;;;14.80;;
3491;SDS011;1760;52.480;13.422;2023-04-15T00:46:34;25.53;;;15.07;;
3491;SDS011;1760;52.480;13.422;2023-04-15T00:49:02;28.07;;;15.10;;
3491;SDS011;1760;52.480;13.422;2023-04-15T00:51:30;29.40;;;15.33;;
3491;SDS011;1760;52.480;13.422;2023-04-15T00:54:00;29.23;;;16.80;;
3491;SDS011;1760;52.480;13.422;2023-04-15T00:56:27;25.97;;;14.30;;
3491;SDS011;1760;52.480;13.422;2023-04-15T00:58:56;31.07;;;15.97;;
3491;SDS011;1760;52.480;13.422;2023-04-15T01:01:25;27.40;;;15.60;;
3491;SDS011;1760;52.480;13.422;2023-04-15T01:03:54;24.67;;;14.83;;
3491;SDS011;1760;52.480;13.422;2023-04-15T01:06:22;26.87;;;15.40;;
3491;SDS011;1760;52.480;13.422;2023-04-15T01:08:51;28.53;;;15.47;;
3491;SDS011;1760;52.480;13.422;2023-04-15T01:11:18;27.73;;;17.53;;
3491;SDS011;1760;52.480;13.422;2023-04-15T01:13:45;24.00;;;14.63;;
3491;SDS011;1760;52.480;13.422;2023-04-15T01:16:14;25.33;;;13.80;;
3491;SDS011;1760;52.480;13.422;2023-04-15T01:18:41;26.90;;;16.03;;
3491;SDS011;1760;52.480;13.422;2023-04-15T01:21:09;29.97;;;15.10;;
3491;SDS011;1760;52.480;13.422;2023-04-15T01:23:36;25.50;;;15.73;;
3491;SDS011;1760;52.480;13.422;2023-04-15T01:26:05;37.30;;;15.63;;
3491;SDS011;1760;52.480;13.422;2023-04-15T01:28:33;28.77;;;16.10;;
3491;SDS011;1760;52.480;13.422;2023-04-15T01:31:10;40.53;;;18.17;;
3491;SDS011;1760;52.480;13.422;2023-04-15T01:33:39;28.37;;;16.07;;
3491;SDS011;1760;52.480;13.422;2023-04-15T01:36:07;26.93;;;15.67;;
3491;SDS011;1760;52.480;13.422;2023-04-15T01:38:35;30.73;;;15.97;;
3491;SDS011;1760;52.480;13.422;2023-04-15T01:41:03;35.20;;;17.70;;
3491;SDS011;1760;52.480;13.422;2023-04-15T01:43:32;42.20;;;23.60;;
3491;SDS011;1760;52.480;13.422;2023-04-15T01:45:59;27.40;;;15.20;;
3491;SDS011;1760;52.480;13.422;2023-04-15T01:48:25;29.20;;;16.13;;
3491;SDS011;1760;52.480;13.422;2023-04-15T01:50:55;33.30;;;17.37;;
3491;SDS011;1760;52.480;13.422;2023-04-15T01:53:22;25.70;;;16.20;;
3491;SDS011;1760;52.480;13.422;2023-04-15T01:55:49;29.17;;;16.73;;
3491;SDS011;1760;52.480;13.422;2023-04-15T01:58:18;30.90;;;15.67;;
3491;SDS011;1760;52.480;13.422;2023-04-15T02:00:46;30.33;;;16.10;;
3491;SDS011;1760;52.480;13.422;2023-04-15T02:03:13;32.83;;;16.80;;
3491;SDS011;1760;52.480;13.422;2023-04-15T02:05:40;35.80;;;18.20;;
3491;SDS011;1760;52.480;13.422;2023-04-15T02:08:07;32.80;;;17.30;;
3491;SDS011;1760;52.480;13.422;2023-04-15T02:10:34;31.00;;;16.40;;
3491;SDS011;1760;52.480;13.422;2023-04-15T02:13:01;33.57;;;17.37;;
3491;SDS011;1760;52.480;13.422;2023-04-15T02:15:30;31.40;;;16.47;;
3491;SDS011;1760;52.480;13.422;2023-04-15T02:17:57;31.83;;;16.00;;
3491;SDS011;1760;52.480;13.422;2023-04-15T02:20:25;36.07;;;18.30;;
3491;SDS011;1760;52.480;13.422;2023-04-15T02:22:54;28.03;;;14.00;;
3491;SDS011;1760;52.480;13.422;2023-04-15T02:25:21;31.10;;;16.27;;
3491;SDS011;1760;52.480;13.422;2023-04-15T02:27:48;32.13;;;16.63;;
3491;SDS011;1760;52.480;13.422;2023-04-15T02:30:24;31.30;;;17.37;;
3491;SDS011;1760;52.480;13.422;2023-04-15T02:32:52;23.10;;;14.27;;
3491;SDS011;1760;52.480;13.422;2023-04-15T02:35:20;29.83;;;16.87;;
3491;SDS011;1760;52.480;13.422;2023-04-15T02:37:46;27.50;;;15.80;;
3491;SDS011;1760;52.480;13.422;2023-04-15T02:40:13;34.40;;;17.10;;
3491;SDS011;1760;52.480;13.422;2023-04-15T02:42:41;34.00;;;17.40;;
3491;SDS011;1760;52.480;13.422;2023-04-15T02:45:08;29.47;;;16.27;;
3491;SDS011;1760;52.480;13.422;2023-04-15T02:47:37;29.33;;;14.80;;
3491;SDS011;1760;52.480;13.422;2023-04-15T02:50:08;32.27;;;16.17;;
3491;SDS011;1760;52.480;13.422;2023-04-15T02:52:36;33.50;;;16.17;;
3491;SDS011;1760;52.480;13.422;2023-04-15T02:55:04;26.13;;;15.40;;
3491;SDS011;1760;52.480;13.422;2023-04-15T02:57:32;30.73;;;16.43;;
3491;SDS011;1760;52.480;13.422;2023-04-15T03:00:01;32.90;;;16.57;;
3491;SDS011;1760;52.480;13.422;2023-04-15T03:02:35;32.90;;;15.37;;
3491;SDS011;1760;52.480;13.422;2023-04-15T03:05:03;28.63;;;15.17;;
3491;SDS011;1760;52.480;13.422;2023-04-15T03:07:32;32.20;;;16.87;;
3491;SDS011;1760;52.480;13.422;2023-04-15T03:09:59;33.47;;;17.47;;
3491;SDS011;1760;52.480;13.422;2023-04-15T03:12:26;36.00;;;17.87;;
3491;SDS011;1760;52.480;13.422;2023-04-15T03:14:54;27.70;;;17.83;;
3491;SDS011;1760;52.480;13.422;2023-04-15T03:17:21;25.67;;;14.30;;
3491;SDS011;1760;52.480;13.422;2023-04-15T03:19:48;27.73;;;14.70;;
3491;SDS011;1760;52.480;13.422;2023-04-15T03:22:15;30.23;;;16.83;;
3491;SDS011;1760;52.480;13.422;2023-04-15T03:24:43;30.00;;;15.87;;
3491;SDS011;1760;52.480;13.422;2023-04-15T03:27:10;27.30;;;14.17;;
3491;SDS011;1760;52.480;13.422;2023-04-15T03:29:37;33.73;;;15.93;;
3491;SDS011;1760;52.480;13.422;2023-04-15T03:32:04;32.23;;;17.20;;
3491;SDS011;1760;52.480;13.422;2023-04-15T03:34:33;27.20;;;14.73;;
3491;SDS011;1760;52.480;13.422;2023-04-15T03:37:00;31.57;;;16.03;;
3491;SDS011;1760;52.480;13.422;2023-04-15T03:39:27;32.90;;;16.70;;
3491;SDS011;1760;52.480;13.422;2023-04-15T03:41:55;32.03;;;15.73;;
3491;SDS011;1760;52.480;13.422;2023-04-15T03:44:23;25.87;;;13.07;;
3491;SDS011;1760;52.480;13.422;2023-04-15T03:46:51;30.20;;;15.43;;
3491;SDS011;1760;52.480;13.422;2023-04-15T03:49:18;22.00;;;13.13;;
3491;SDS011;1760;52.480;13.422;2023-04-15T03:51:47;33.37;;;16.67;;
3491;SDS011;1760;52.480;13.422;2023-04-15T03:54:13;23.50;;;13.80;;
3491;SDS011;1760;52.480;13.422;2023-04-15T03:56:40;28.10;;;16.50;;
3491;SDS011;1760;52.480;13.422;2023-04-15T03:59:08;27.50;;;15.03;;
3491;SDS011;1760;52.480;13.422;2023-04-15T04:01:35;25.03;;;14.63;;
3491;SDS011;1760;52.480;13.422;2023-04-15T04:04:02;26.67;;;14.50;;
3491;SDS011;1760;52.480;13.422;2023-04-15T04:06:29;22.10;;;13.40;;
3491;SDS011;1760;52.480;13.422;2023-04-15T04:08:56;29.03;;;14.80;;
3491;SDS011;1760;52.480;13.422;2023-04-15T04:11:23;25.17;;;15.23;;
3491;SDS011;1760;52.480;13.422;2023-04-15T04:13:50;29.07;;;15.97;;
3491;SDS011;1760;52.480;13.422;2023-04-15T04:16:18;23.13;;;13.60;;
3491;SDS011;1760;52.480;13.422;2023-04-15T04:18:45;25.23;;;14.43;;
3491;SDS011;1760;52.480;13.422;2023-04-15T04:21:12;27.00;;;14.70;;
3491;SDS011;1760;52.480;13.422;2023-04-15T04:23:39;23.63;;;13.30;;
3491;SDS011;1760;52.480;13.422;2023-04-15T04:26:06;21.80;;;13.80;;
3491;SDS011;1760;52.480;13.422;2023-04-15T04:28:33;20.17;;;12.13;;
3491;SDS011;1760;52.480;13.422;2023-04-15T04:31:00;22.97;;;13.23;;
3491;SDS011;1760;52.480;13.422;2023-04-15T04:33:28;28.73;;;14.60;;
3491;SDS011;1760;52.480;13.422;2023-04-15T04:35:55;19.50;;;12.80;;
3491;SDS011;1760;52.480;13.422;2023-04-15T04:38:22;19.93;;;12.70;;
3491;SDS011;1760;52.480;13.422;2023-04-15T04:40:49;22.10;;;13.10;;
3491;SDS011;1760;52.480;13.422;2023-04-15T04:43:16;18.50;;;12.37;;
3491;SDS011;1760;52.480;13.422;2023-04-15T04:45:43;24.80;;;13.63;;
3491;SDS011;1760;52.480;13.422;2023-04-15T04:48:10;17.00;;;11.00;;
3491;SDS011;1760;52.480;13.422;2023-04-15T04:50:38;23.13;;;14.60;;
3491;SDS011;1760;52.480;13.422;2023-04-15T04:53:05;28.33;;;14.00;;
3491;SDS011;1760;52.480;13.422;2023-04-15T04:55:32;24.33;;;13.83;;
3491;SDS011;1760;52.480;13.422;2023-04-15T04:58:01;30.93;;;13.47;;
3491;SDS011;1760;52.480;13.422;2023-04-15T05:00:27;24.90;;;12.17;;
3491;SDS011;1760;52.480;13.422;2023-04-15T05:02:54;18.80;;;12.57;;
3491;SDS011;1760;52.480;13.422;2023-04-15T05:05:21;24.37;;;13.43;;
3491;SDS011;1760;52.480;13.422;2023-04-15T05:07:49;25.97;;;12.83;;
3491;SDS011;1760;52.480;13.422;2023-04-15T05:10:16;25.77;;;13.20;;
3491;SDS011;1760;52.480;13.422;2023-04-15T05:12:43;16.50;;;11.87;;
3491;SDS011;1760;52.480;13.422;2023-04-15T05:15:10;23.03;;;12.37;;
3491;SDS011;1760;52.480;13.422;2023-04-15T05:17:37;22.33;;;12.40;;
3491;SDS011;1760;52.480;13.422;2023-04-15T05:20:04;18.87;;;12.77;;
3491;SDS011;1760;52.480;13.422;2023-04-15T05:22:32;17.87;;;11.97;;
3491;SDS011;1760;52.480;13.422;2023-04-15T05:25:00;21.53;;;13.20;;
3491;SDS011;1760;52.480;13.422;2023-04-15T05:27:27;18.77;;;10.50;;
3491;SDS011;1760;52.480;13.422;2023-04-15T05:29:54;16.60;;;11.27;;
3491;SDS011;1760;52.480;13.422;2023-04-15T05:32:21;27.17;;;12.60;;
3491;SDS011;1760;52.480;13.422;2023-04-15T05:34:48;16.80;;;10.90;;
3491;SDS011;1760;52.480;13.422;2023-04-15T05:37:16;19.57;;;9.93;;
3491;SDS011;1760;52.480;13.422;2023-04-15T05:39:44;14.23;;;10.20;;
3491;SDS011;1760;52.480;13.422;2023-04-15T05:42:13;22.77;;;11.80;;
3491;SDS011;1760;52.480;13.422;2023-04-15T05:44:40;20.97;;;11.00;;
3491;SDS011;1760;52.480;13.422;2023-04-15T05:47:07;16.40;;;10.77;;
3491;SDS011;1760;52.480;13.422;2023-04-15T05:49:35;19.30;;;10.90;;
3491;SDS011;1760;52.480;13.422;2023-04-15T05:52:01;13.90;;;8.87;;
3491;SDS011;1760;52.480;13.422;2023-04-15T05:54:28;13.40;;;8.97;;
3491;SDS011;1760;52.480;13.422;2023-04-15T05:56:55;13.47;;;8.90;;
3491;SDS011;1760;52.480;13.422;2023-04-15T05:59:24;14.00;;;9.70;;
3491;SDS011;1760;52.480;13.422;2023-04-15T06:01:52;17.07;;;9.30;;
3491;SDS011;1760;52.480;13.422;2023-04-15T06:04:19;15.50;;;9.63;;
3491;SDS011;1760;52.480;13.422;2023-04-15T06:06:46;15.13;;;9.80;;
3491;SDS011;1760;52.480;13.422;2023-04-15T06:09:26;14.10;;;10.00;;
3491;SDS011;1760;52.480;13.422;2023-04-15T06:11:53;14.83;;;10.00;;
3491;SDS011;1760;52.480;13.422;2023-04-15T06:14:20;14.30;;;10.47;;
3491;SDS011;1760;52.480;13.422;2023-04-15T06:16:48;16.40;;;10.37;;
3491;SDS011;1760;52.480;13.422;2023-04-15T06:19:15;14.90;;;9.83;;
3491;SDS011;1760;52.480;13.422;2023-04-15T06:21:42;13.83;;;9.23;;
3491;SDS011;1760;52.480;13.422;2023-04-15T06:24:09;12.40;;;9.60;;
3491;SDS011;1760;52.480;13.422;2023-04-15T06:26:36;14.03;;;9.77;;
3491;SDS011;1760;52.480;13.422;2023-04-15T06:29:03;17.57;;;10.30;;
3491;SDS011;1760;52.480;13.422;2023-04-15T06:31:30;14.83;;;9.87;;
3491;SDS011;1760;52.480;13.422;2023-04-15T06:33:58;13.63;;;9.70;;
3491;SDS011;1760;52.480;13.422;2023-04-15T06:36:25;12.97;;;9.33;;
3491;SDS011;1760;52.480;13.422;2023-04-15T06:38:52;14.53;;;10.57;;
3491;SDS011;1760;52.480;13.422;2023-04-15T06:41:20;14.80;;;10.37;;
3491;SDS011;1760;52.480;13.422;2023-04-15T06:43:47;18.47;;;9.97;;
3491;SDS011;1760;52.480;13.422;2023-04-15T06:46:14;14.67;;;9.77;;
3491;SDS011;1760;52.480;13.422;2023-04-15T06:48:41;19.60;;;8.90;;
3491;SDS011;1760;52.480;13.422;2023-04-15T06:51:09;17.70;;;9.73;;
3491;SDS011;1760;52.480;13.422;2023-04-15T06:53:36;15.90;;;9.50;;
3491;SDS011;1760;52.480;13.422;2023-04-15T06:56:05;15.83;;;10.00;;
3491;SDS011;1760;52.480;13.422;2023-04-15T06:58:33;11.07;;;9.10;;
3491;SDS011;1760;52.480;13.422;2023-04-15T07:01:00;11.50;;;9.20;;
3491;SDS011;1760;52.480;13.422;2023-04-15T07:03:27;12.53;;;7.80;;
3491;SDS011;1760;52.480;13.422;2023-04-15T07:05:54;16.80;;;9.50;;
3491;SDS011;1760;52.480;13.422;2023-04-15T07:08:22;13.00;;;8.67;;
3491;SDS011;1760;52.480;13.422;2023-04-15T07:10:49;11.00;;;9.70;;
3491;SDS011;1760;52.480;13.422;2023-04-15T07:13:16;13.67;;;10.30;;
3491;SDS011;1760;52.480;13.422;2023-04-15T07:15:43;13.57;;;9.77;;
3491;SDS011;1760;52.480;13.422;2023-04-15T07:18:10;11.80;;;8.67;;
3491;SDS011;1760;52.480;13.422;2023-04-15T07:20:38;15.10;;;8.20;;
3491;SDS011;1760;52.480;13.422;2023-04-15T07:23:05;11.20;;;8.40;;
3491;SDS011;1760;52.480;13.422;2023-04-15T07:25:33;10.87;;;8.40;;
3491;SDS011;1760;52.480;13.422;2023-04-15T07:28:00;14.03;;;8.90;;
3491;SDS011;1760;52.480;13.422;2023-04-15T07:30:27;11.43;;;9.00;;
3491;SDS011;1760;52.480;13.422;2023-04-15T07:32:54;11.50;;;9.00;;
3491;SDS011;1760;52.480;13.422;2023-04-15T07:35:21;10.07;;;8.43;;
3491;SDS011;1760;52.480;13.422;2023-04-15T07:37:49;11.30;;;8.27;;
3491;SDS011;1760;52.480;13.422;2023-04-15T07:40:16;15.17;;;8.17;;
3491;SDS011;1760;52.480;13.422;2023-04-15T07:42:45;9.70;;;8.27;;
3491;SDS011;1760;52.480;13.422;2023-04-15T07:45:13;13.50;;;8.63;;
3491;SDS011;1760;52.480;13.422;2023-04-15T07:47:40;14.47;;;8.47;;
3491;SDS011;1760;52.480;13.422;2023-04-15T07:50:08;12.23;;;9.60;;
3491;SDS011;1760;52.480;13.422;2023-04-15T07:52:35;14.83;;;9.10;;
3491;SDS011;1760;52.480;13.422;2023-04-15T07:55:04;11.10;;;8.73;;
3491;SDS011;1760;52.480;13.422;2023-04-15T07:57:32;14.57;;;8.93;;
3491;SDS011;1760;52.480;13.422;2023-04-15T08:00:00;13.43;;;8.90;;
3491;SDS011;1760;52.480;13.422;2023-04-15T08:02:29;14.53;;;9.97;;
3491;SDS011;1760;52.480;13.422;2023-04-15T08:04:58;13.67;;;9.13;;
3491;SDS011;1760;52.480;13.422;2023-04-15T08:07:26;20.80;;;9.47;;
3491;SDS011;1760;52.480;13.422;2023-04-15T08:09:54;11.20;;;8.40;;
3491;SDS011;1760;52.480;13.422;2023-04-15T08:12:20;13.90;;;9.40;;
3491;SDS011;1760;52.480;13.422;2023-04-15T08:14:48;14.17;;;8.17;;
3491;SDS011;1760;52.480;13.422;2023-04-15T08:17:17;13.67;;;10.07;;
3491;SDS011;1760;52.480;13.422;2023-04-15T08:19:44;13.40;;;11.17;;
3491;SDS011;1760;52.480;13.422;2023-04-15T08:22:12;12.10;;;8.77;;
3491;SDS011;1760;52.480;13.422;2023-04-15T08:24:39;16.27;;;11.03;;
3491;SDS011;1760;52.480;13.422;2023-04-15T08:27:06;18.97;;;9.43;;
3491;SDS011;1760;52.480;13.422;2023-04-15T08:29:33;11.90;;;9.07;;
3491;SDS011;1760;52.480;13.422;2023-04-15T08:32:00;13.93;;;9.30;;
3491;SDS011;1760;52.480;13.422;2023-04-15T08:34:29;12.70;;;9.20;;
3491;SDS011;1760;52.480;13.422;2023-04-15T08:36:56;12.53;;;9.83;;
3491;SDS011;1760;52.480;13.422;2023-04-15T08:39:23;13.10;;;9.97;;
3491;SDS011;1760;52.480;13.422;2023-04-15T08:41:51;14.90;;;10.80;;
3491;SDS011;1760;52.480;13.422;2023-04-15T08:44:22;19.10;;;10.80;;
3491;SDS011;1760;52.480;13.422;2023-04-15T08:46:49;12.80;;;9.33;;
3491;SDS011;1760;52.480;13.422;2023-04-15T08:49:17;13.00;;;8.93;;
3491;SDS011;1760;52.480;13.422;2023-04-15T08:51:47;16.93;;;10.60;;
3491;SDS011;1760;52.480;13.422;2023-04-15T08:54:14;12.53;;;10.40;;
3491;SDS011;1760;52.480;13.422;2023-04-15T08:56:41;13.83;;;9.60;;
3491;SDS011;1760;52.480;13.422;2023-04-15T08:59:08;15.57;;;10.10;;
3491;SDS011;1760;52.480;13.422;2023-04-15T09:01:36;13.97;;;9.70;;
3491;SDS011;1760;52.480;13.422;2023-04-15T09:04:03;12.93;;;10.37;;
3491;SDS011;1760;52.480;13.422;2023-04-15T09:06:32;18.57;;;12.20;;
3491;SDS011;1760;52.480;13.422;2023-04-15T09:09:01;13.97;;;9.87;;
3491;SDS011;1760;52.480;13.422;2023-04-15T09:11:28;13.30;;;10.00;;
3491;SDS011;1760;52.480;13.422;2023-04-15T09:13:56;13.70;;;9.73;;
3491;SDS011;1760;52.480;13.422;2023-04-15T09:16:22;15.03;;;10.70;;
3491;SDS011;1760;52.480;13.422;2023-04-15T09:18:50;10.97;;;8.33;;
3491;SDS011;1760;52.480;13.422;2023-04-15T09:21:17;12.30;;;8.93;;
3491;SDS011;1760;52.480;13.422;2023-04-15T09:23:53;14.90;;;10.30;;
3491;SDS011;1760;52.480;13.422;2023-04-15T09:26:30;10.93;;;9.13;;
3491;SDS011;1760;52.480;13.422;2023-04-15T09:29:01;13.83;;;10.47;;
3491;SDS011;1760;52.480;13.422;2023-04-15T09:31:31;12.00;;;9.57;;
3491;SDS011;1760;52.480;13.422;2023-04-15T09:33:58;10.90;;;9.10;;
3491;SDS011;1760;52.480;13.422;2023-04-15T09:36:25;13.90;;;9.97;;
3491;SDS011;1760;52.480;13.422;2023-04-15T09:38:54;13.00;;;10.13;;
3491;SDS011;1760;52.480;13.422;2023-04-15T09:41:22;12.37;;;9.13;;
3491;SDS011;1760;52.480;13.422;2023-04-15T09:43:51;13.23;;;9.43;;
3491;SDS011;1760;52.480;13.422;2023-04-15T09:46:18;13.90;;;9.60;;
3491;SDS011;1760;52.480;13.422;2023-04-15T09:48:45;15.43;;;10.67;;
3491;SDS011;1760;52.480;13.422;2023-04-15T09:51:12;13.57;;;9.67;;
3491;SDS011;1760;52.480;13.422;2023-04-15T09:53:39;17.83;;;9.57;;
3491;SDS011;1760;52.480;13.422;2023-04-15T09:56:06;12.50;;;10.30;;
3491;SDS011;1760;52.480;13.422;2023-04-15T09:58:35;11.77;;;9.33;;
3491;SDS011;1760;52.480;13.422;2023-04-15T10:01:04;16.60;;;9.70;;
3491;SDS011;1760;52.480;13.422;2023-04-15T10:03:33;14.43;;;10.10;;
3491;SDS011;1760;52.480;13.422;2023-04-15T10:06:01;10.93;;;9.47;;
3491;SDS011;1760;52.480;13.422;2023-04-15T10:08:31;12.50;;;9.27;;
3491;SDS011;1760;52.480;13.422;2023-04-15T10:10:59;10.13;;;8.97;;
3491;SDS011;1760;52.480;13.422;2023-04-15T10:13:28;14.70;;;9.77;;
3491;SDS011;1760;52.480;13.422;2023-04-15T10:15:59;16.02;;;9.80;;
3491;SDS011;1760;52.480;13.422;2023-04-15T10:18:33;11.20;;;9.03;;
3491;SDS011;1760;52.480;13.422;2023-04-15T10:21:02;12.10;;;9.07;;
3491;SDS011;1760;52.480;13.422;2023-04-15T10:23:31;14.00;;;10.83;;
3491;SDS011;1760;52.480;13.422;2023-04-15T10:25:58;15.10;;;10.70;;
3491;SDS011;1760;52.480;13.422;2023-04-15T10:28:26;14.40;;;9.40;;
3491;SDS011;1760;52.480;13.422;2023-04-15T10:30:53;14.80;;;9.57;;
3491;SDS011;1760;52.480;13.422;2023-04-15T10:33:22;26.23;;;16.37;;
3491;SDS011;1760;52.480;13.422;2023-04-15T10:35:53;26.60;;;15.87;;
3491;SDS011;1760;52.480;13.422;2023-04-15T10:38:31;14.97;;;10.53;;
3491;SDS011;1760;52.480;13.422;2023-04-15T10:43:51;9.50;;;8.30;;
3491;SDS011;1760;52.480;13.422;2023-04-15T10:46:22;13.50;;;9.70;;
3491;SDS011;1760;52.480;13.422;2023-04-15T10:48:51;13.13;;;9.80;;
3491;SDS011;1760;52.480;13.422;2023-04-15T10:51:27;10.63;;;7.50;;
3491;SDS011;1760;52.480;13.422;2023-04-15T10:53:56;9.80;;;7.90;;
3491;SDS011;1760;52.480;13.422;2023-04-15T10:56:24;11.30;;;7.90;;
3491;SDS011;1760;52.480;13.422;2023-04-15T10:58:51;12.27;;;8.70;;
3491;SDS011;1760;52.480;13.422;2023-04-15T11:01:18;9.83;;;7.90;;
3491;SDS011;1760;52.480;13.422;2023-04-15T11:03:47;12.17;;;8.90;;
3491;SDS011;1760;52.480;13.422;2023-04-15T11:06:15;13.23;;;8.50;;
3491;SDS011;1760;52.480;13.422;2023-04-15T11:08:53;13.67;;;8.97;;
3491;SDS011;1760;52.480;13.422;2023-04-15T11:11:23;13.87;;;9.33;;
3491;SDS011;1760;52.480;13.422;2023-04-15T11:14:04;9.30;;;8.03;;
3491;SDS011;1760;52.480;13.422;2023-04-15T11:16:43;10.37;;;7.93;;
3491;SDS011;1760;52.480;13.422;2023-04-15T11:19:10;10.30;;;8.57;;
3491;SDS011;1760;52.480;13.422;2023-04-15T11:21:37;10.43;;;9.00;;
3491;SDS011;1760;52.480;13.422;2023-04-15T11:24:06;10.90;;;8.53;;
3491;SDS011;1760;52.480;13.422;2023-04-15T11:26:33;9.73;;;8.00;;
3491;SDS011;1760;52.480;13.422;2023-04-15T11:28:59;11.20;;;8.10;;
3491;SDS011;1760;52.480;13.422;2023-04-15T11:31:27;10.60;;;9.10;;
3491;SDS011;1760;52.480;13.422;2023-04-15T11:33:54;9.70;;;6.90;;
3491;SDS011;1760;52.480;13.422;2023-04-15T11:36:23;10.50;;;8.00;;
3491;SDS011;1760;52.480;13.422;2023-04-15T11:38:53;10.80;;;9.40;;
3491;SDS011;1760;52.480;13.422;2023-04-15T11:41:22;11.27;;;9.53;;
3491;SDS011;1760;52.480;13.422;2023-04-15T11:43:49;10.43;;;8.50;;
3491;SDS011;1760;52.480;13.422;2023-04-15T11:46:16;10.57;;;7.90;;
3491;SDS011;1760;52.480;13.422;2023-04-15T11:48:44;11.03;;;7.87;;
3491;SDS011;1760;52.480;13.422;2023-04-15T11:51:12;12.40;;;8.77;;
3491;SDS011;1760;52.480;13.422;2023-04-15T11:53:40;13.40;;;8.67;;
3491;SDS011;1760;52.480;13.422;2023-04-15T11:56:09;9.27;;;8.17;;
3491;SDS011;1760;52.480;13.422;2023-04-15T11:58:43;12.03;;;8.40;;
3491;SDS011;1760;52.480;13.422;2023-04-15T12:01:10;10.27;;;7.37;;
3491;SDS011;1760;52.480;13.422;2023-04-15T12:03:38;9.57;;;8.00;;
3491;SDS011;1760;52.480;13.422;2023-04-15T12:08:50;9.07;;;8.17;;
3491;SDS011;1760;52.480;13.422;2023-04-15T12:11:35;8.43;;;6.60;;
3491;SDS011;1760;52.480;13.422;2023-04-15T12:14:06;10.03;;;6.83;;
3491;SDS011;1760;52.480;13.422;2023-04-15T12:16:39;9.80;;;6.80;;
3491;SDS011;1760;52.480;13.422;2023-04-15T12:19:08;8.93;;;7.10;;
3491;SDS011;1760;52.480;13.422;2023-04-15T12:21:37;9.17;;;6.83;;
3491;SDS011;1760;52.480;13.422;2023-04-15T12:24:07;9.93;;;8.90;;
3491;SDS011;1760;52.480;13.422;2023-04-15T12:26:36;22.03;;;7.83;;
3491;SDS011;1760;52.480;13.422;2023-04-15T12:29:10;13.10;;;7.43;;
3491;SDS011;1760;52.480;13.422;2023-04-15T12:31:45;15.87;;;9.80;;
3491;SDS011;1760;52.480;13.422;2023-04-15T12:34:15;15.30;;;9.00;;
3491;SDS011;1760;52.480;13.422;2023-04-15T12:36:44;8.70;;;6.40;;
3491;SDS011;1760;52.480;13.422;2023-04-15T12:39:11;10.67;;;7.70;;
3491;SDS011;1760;52.480;13.422;2023-04-15T12:41:38;8.47;;;6.50;;
3491;SDS011;1760;52.480;13.422;2023-04-15T12:44:06;10.00;;;7.13;;
3491;SDS011;1760;52.480;13.422;2023-04-15T12:46:35;7.87;;;6.00;;
3491;SDS011;1760;52.480;13.422;2023-04-15T12:49:02;8.80;;;7.10;;
3491;SDS011;1760;52.480;13.422;2023-04-15T12:51:29;10.07;;;7.23;;
3491;SDS011;1760;52.480;13.422;2023-04-15T12:53:57;9.23;;;7.40;;
3491;SDS011;1760;52.480;13.422;2023-04-15T12:56:24;10.53;;;8.77;;
3491;SDS011;1760;52.480;13.422;2023-04-15T12:58:51;10.37;;;7.10;;
3491;SDS011;1760;52.480;13.422;2023-04-15T13:01:18;11.77;;;7.30;;
3491;SDS011;1760;52.480;13.422;2023-04-15T13:03:47;8.60;;;6.40;;
3491;SDS011;1760;52.480;13.422;2023-04-15T13:06:15;7.10;;;6.30;;
3491;SDS011;1760;52.480;13.422;2023-04-15T13:08:42;6.77;;;6.13;;
3491;SDS011;1760;52.480;13.422;2023-04-15T13:11:09;10.13;;;7.00;;
3491;SDS011;1760;52.480;13.422;2023-04-15T13:13:36;7.70;;;5.93;;
3491;SDS011;1760;52.480;13.422;2023-04-15T13:16:03;8.30;;;6.27;;
3491;SDS011;1760;52.480;13.422;2023-04-15T13:18:31;7.80;;;6.80;;
3491;SDS011;1760;52.480;13.422;2023-04-15T13:21:00;8.50;;;6.03;;
3491;SDS011;1760;52.480;13.422;2023-04-15T13:23:27;8.33;;;6.27;;
3491;SDS011;1760;52.480;13.422;2023-04-15T13:25:54;9.10;;;6.40;;
3491;SDS011;1760;52.480;13.422;2023-04-15T13:28:21;7.33;;;6.03;;
3491;SDS011;1760;52.480;13.422;2023-04-15T13:30:48;10.50;;;7.03;;
3491;SDS011;1760;52.480;13.422;2023-04-15T13:33:15;9.60;;;7.40;;
3491;SDS011;1760;52.480;13.422;2023-04-15T13:35:42;12.03;;;7.30;;
3491;SDS011;1760;52.480;13.422;2023-04-15T13:38:11;7.07;;;5.90;;
3491;SDS011;1760;52.480;13.422;2023-04-15T13:40:38;8.20;;;6.57;;
3491;SDS011;1760;52.480;13.422;2023-04-15T13:43:05;8.70;;;5.30;;
3491;SDS011;1760;52.480;13.422;2023-04-15T13:45:32;8.97;;;6.80;;
3491;SDS011;1760;52.480;13.422;2023-04-15T13:47:59;7.67;;;5.67;;
3491;SDS011;1760;52.480;13.422;2023-04-15T13:50:26;10.70;;;7.47;;
3491;SDS011;1760;52.480;13.422;2023-04-15T13:52:53;6.97;;;6.00;;
3491;SDS011;1760;52.480;13.422;2023-04-15T13:55:21;8.30;;;6.63;;
3491;SDS011;1760;52.480;13.422;2023-04-15T13:57:48;7.60;;;5.63;;
3491;SDS011;1760;52.480;13.422;2023-04-15T14:00:16;7.30;;;6.47;;
3491;SDS011;1760;52.480;13.422;2023-04-15T14:02:43;7.40;;;5.90;;
3491;SDS011;1760;52.480;13.422;2023-04-15T14:05:10;5.73;;;5.23;;
3491;SDS011;1760;52.480;13.422;2023-04-15T14:07:37;7.67;;;5.50;;
3491;SDS011;1760;52.480;13.422;2023-04-15T14:10:04;11.27;;;5.97;;
3491;SDS011;1760;52.480;13.422;2023-04-15T14:12:33;8.20;;;5.70;;
3491;SDS011;1760;52.480;13.422;2023-04-15T14:15:00;8.00;;;5.50;;
3491;SDS011;1760;52.480;13.422;2023-04-15T14:17:27;9.03;;;5.47;;
3491;SDS011;1760;52.480;13.422;2023-04-15T14:19:54;9.57;;;6.27;;
3491;SDS011;1760;52.480;13.422;2023-04-15T14:22:21;10.63;;;7.43;;
3491;SDS011;1760;52.480;13.422;2023-04-15T14:24:48;15.23;;;6.47;;
3491;SDS011;1760;52.480;13.422;2023-04-15T14:27:17;8.20;;;5.53;;
3491;SDS011;1760;52.480;13.422;2023-04-15T14:29:46;11.80;;;5.97;;
3491;SDS011;1760;52.480;13.422;2023-04-15T14:32:13;10.57;;;6.40;;
3491;SDS011;1760;52.480;13.422;2023-04-15T14:34:40;7.27;;;5.63;;
3491;SDS011;1760;52.480;13.422;2023-04-15T14:37:07;8.13;;;5.53;;
3491;SDS011;1760;52.480;13.422;2023-04-15T14:39:34;6.47;;;4.80;;
3491;SDS011;1760;52.480;13.422;2023-04-15T14:42:01;6.73;;;5.50;;
3491;SDS011;1760;52.480;13.422;2023-04-15T14:44:28;6.87;;;5.37;;
3491;SDS011;1760;52.480;13.422;2023-04-15T14:46:56;7.03;;;5.80;;
3491;SDS011;1760;52.480;13.422;2023-04-15T14:49:23;6.87;;;5.43;;
3491;SDS011;1760;52.480;13.422;2023-04-15T14:51:50;6.53;;;5.87;;
3491;SDS011;1760;52.480;13.422;2023-04-15T14:54:17;6.43;;;5.70;;